Time;durP1;ratioP1;P1;durP2;ratioP2;P2;SDS_P1;SDS_P2;PMS_P1;PMS_P2;Temp;Humidity;BMP_temperature;BMP_pressure;BME280_temperature;BME280_humidity;BME280_pressure;Samples;Min_cycle;Max_cycle;Signal;HPM_P1;HPM_P2
2021/12/08 00:01:53;;;;;;;3.40;3.08;;;-3.50;99.90;;;;;;5105967;27;20862;-58
2021/12/08 00:04:33;;;;;;;3.30;2.95;;;-3.50;99.90;;;;;;5147185;27;20567;-59
2021/12/08 00:07:13;;;;;;;3.63;3.30;;;-3.60;99.90;;;;;;5126970;27;20575;-58
2021/12/08 00:10:04;;;;;;;3.13;2.83;;;-3.50;99.90;;;;;;5086483;28;21200;-59
2021/12/08 00:13:05;;;;;;;3.28;2.97;;;-3.40;99.90;;;;;;5127166;27;20956;-58
2021/12/08 00:15:46;;;;;;;3.10;2.80;;;-3.20;99.90;;;;;;5086420;27;20535;-58
2021/12/08 00:18:28;;;;;;;3.80;3.40;;;-2.90;99.90;;;;;;5086344;28;20659;-58
2021/12/08 00:21:10;;;;;;;3.28;2.97;;;-2.70;99.90;;;;;;5086840;28;20664;-56
2021/12/08 00:23:50;;;;;;;3.00;2.80;;;-2.80;99.90;;;;;;5085994;27;20567;-58
2021/12/08 00:26:30;;;;;;;5.07;2.80;;;-3.00;99.90;;;;;;5147719;27;20677;-58
2021/12/08 00:29:10;;;;;;;3.53;3.20;;;-3.10;99.90;;;;;;5086065;27;20699;-58
2021/12/08 00:31:50;;;;;;;4.03;3.63;;;-3.00;99.90;;;;;;5106367;27;20550;-58
2021/12/08 00:34:31;;;;;;;3.67;3.38;;;-3.10;99.90;;;;;;5085807;28;20683;-58
2021/12/08 00:37:12;;;;;;;4.32;3.92;;;-3.30;99.90;;;;;;5106385;27;20534;-58
2021/12/08 00:39:52;;;;;;;5.00;3.63;;;-3.50;99.90;;;;;;5086294;27;20863;-58
2021/12/08 00:42:32;;;;;;;4.47;4.07;;;-3.70;99.90;;;;;;5126996;27;20548;-58
2021/12/08 00:45:15;;;;;;;3.85;3.50;;;-3.80;99.90;;;;;;5147413;27;20542;-58
2021/12/08 00:47:55;;;;;;;4.13;3.75;;;-4.00;99.90;;;;;;5106371;27;20537;-58
2021/12/08 00:50:38;;;;;;;3.45;3.17;;;-3.90;99.90;;;;;;5126718;27;20544;-58
2021/12/08 00:53:19;;;;;;;3.90;3.22;;;-3.80;99.90;;;;;;5085980;28;20668;-58
2021/12/08 00:55:58;;;;;;;5.45;4.95;;;-3.60;99.90;;;;;;5085852;27;20565;-58
2021/12/08 00:58:37;;;;;;;4.18;3.83;;;-3.60;99.90;;;;;;5086153;27;20528;-58
2021/12/08 01:01:18;;;;;;;3.63;2.67;;;-3.50;99.90;;;;;;5147373;27;21194;-58
2021/12/08 01:03:57;;;;;;;3.22;2.13;;;-3.60;99.90;;;;;;5086128;28;20667;-58
2021/12/08 01:06:37;;;;;;;2.05;1.85;;;-3.50;99.90;;;;;;5085946;27;20791;-58
2021/12/08 01:09:18;;;;;;;2.38;2.17;;;-3.40;99.90;;;;;;5086327;27;20547;-58
2021/12/08 01:12:01;;;;;;;2.58;2.33;;;-3.40;99.90;;;;;;5127222;27;20667;-58
2021/12/08 01:14:41;;;;;;;5.13;3.67;;;-3.50;99.90;;;;;;5086844;28;20667;-58
2021/12/08 01:17:21;;;;;;;3.97;3.60;;;-3.60;99.90;;;;;;5086384;27;20543;-58
2021/12/08 01:20:01;;;;;;;4.63;3.75;;;-3.80;99.90;;;;;;5086355;27;20544;-58
2021/12/08 01:22:41;;;;;;;4.90;3.72;;;-4.00;99.90;;;;;;5086179;27;20566;-58
2021/12/08 01:25:21;;;;;;;3.30;3.00;;;-4.10;99.90;;;;;;5086250;28;20675;-58
2021/12/08 01:28:01;;;;;;;4.22;3.83;;;-4.30;99.90;;;;;;5106414;27;20898;-58
2021/12/08 01:30:41;;;;;;;5.10;4.00;;;-4.40;99.90;;;;;;5086256;28;20539;-58
2021/12/08 01:33:23;;;;;;;4.45;4.00;;;-4.40;99.90;;;;;;5085863;28;20601;-58
2021/12/08 01:36:05;;;;;;;11.02;6.55;;;-4.50;99.90;;;;;;5106156;27;20546;-59
2021/12/08 01:38:45;;;;;;;6.63;5.43;;;-4.40;99.90;;;;;;5086024;27;20543;-58
2021/12/08 01:41:25;;;;;;;11.70;8.80;;;-4.40;99.90;;;;;;5106343;27;20546;-58
2021/12/08 01:47:02;;;;;;;26.95;18.65;;;-4.60;99.90;;;;;;5086086;27;20544;-58
2021/12/08 01:49:41;;;;;;;19.27;15.02;;;-4.70;99.90;;;;;;5086120;27;20583;-58
2021/12/08 01:52:24;;;;;;;13.02;10.80;;;-4.70;99.90;;;;;;5106199;27;20674;-58
2021/12/08 01:55:05;;;;;;;14.75;10.77;;;-4.90;99.90;;;;;;5147260;27;21183;-58
2021/12/08 01:57:46;;;;;;;21.00;13.82;;;-5.00;99.90;;;;;;5086117;28;20679;-58
2021/12/08 02:00:30;;;;;;;18.58;13.20;;;-5.10;99.90;;;;;;5105829;27;20958;-58
2021/12/08 02:03:09;;;;;;;14.90;10.02;;;-5.10;99.90;;;;;;5147614;27;20923;-59
2021/12/08 02:05:49;;;;;;;6.38;5.55;;;-5.00;99.90;;;;;;5085671;28;21201;-59
2021/12/08 02:08:28;;;;;;;9.20;7.00;;;-5.00;99.90;;;;;;5086016;28;21080;-58
2021/12/08 02:11:08;;;;;;;3.97;3.58;;;-5.00;99.90;;;;;;5147643;27;20649;-58
2021/12/08 02:13:51;;;;;;;2.80;2.60;;;-4.70;99.90;;;;;;5086281;27;20541;-58
2021/12/08 02:16:32;;;;;;;2.28;1.98;;;-4.50;99.90;;;;;;5085878;27;20535;-59
2021/12/08 02:19:12;;;;;;;3.00;2.70;;;-4.20;99.90;;;;;;5147378;27;20653;-58
2021/12/08 02:21:53;;;;;;;2.65;2.22;;;-4.20;99.90;;;;;;5147637;27;20657;-58
2021/12/08 02:24:32;;;;;;;2.42;2.17;;;-4.30;99.90;;;;;;5082630;27;20599;-58
2021/12/08 02:27:12;;;;;;;4.28;1.88;;;-4.30;99.90;;;;;;5085579;28;20675;-58
2021/12/08 02:29:57;;;;;;;1.67;1.52;;;-4.20;99.90;;;;;;5106350;27;21251;-58
2021/12/08 02:47:31;;;;;;;2.78;1.73;;;-3.70;99.90;;;;;;5085772;28;20679;-58
2021/12/08 02:50:14;;;;;;;2.10;1.88;;;-3.70;99.90;;;;;;5085860;28;21049;-58
2021/12/08 02:52:54;;;;;;;2.15;1.92;;;-3.80;99.90;;;;;;5147574;27;20669;-58
2021/12/08 02:55:35;;;;;;;2.13;1.70;;;-3.70;99.90;;;;;;5085520;27;21002;-58
2021/12/08 02:58:14;;;;;;;1.90;1.67;;;-3.50;99.90;;;;;;5086223;28;20651;-58
2021/12/08 03:00:58;;;;;;;2.35;1.65;;;-3.40;99.90;;;;;;5085483;27;20551;-58
2021/12/08 03:03:38;;;;;;;2.03;1.60;;;-3.20;99.90;;;;;;5086246;28;20660;-58
2021/12/08 03:06:19;;;;;;;1.67;1.58;;;-3.10;99.90;;;;;;5106424;27;20534;-58
2021/12/08 03:09:00;;;;;;;3.55;1.90;;;-2.90;99.90;;;;;;5086191;28;20667;-58
2021/12/08 03:11:39;;;;;;;1.70;1.60;;;-2.80;99.90;;;;;;5126731;27;20552;-58
2021/12/08 03:14:20;;;;;;;4.28;2.00;;;-2.70;99.90;;;;;;5086135;27;20599;-58
2021/12/08 03:17:05;;;;;;;2.13;1.92;;;-2.60;99.90;;;;;;5085920;27;20564;-58
2021/12/08 03:19:44;;;;;;;1.90;1.50;;;-2.50;99.90;;;;;;5086246;28;20656;-58
2021/12/08 03:22:23;;;;;;;1.42;1.33;;;-2.40;99.90;;;;;;5086068;27;20573;-58
2021/12/08 03:25:06;;;;;;;2.00;1.60;;;-2.40;99.90;;;;;;5085898;28;20683;-58
2021/12/08 03:27:51;;;;;;;1.38;1.27;;;-2.40;99.90;;;;;;5147523;27;20657;-58
2021/12/08 03:30:37;;;;;;;1.88;1.77;;;-2.40;99.90;;;;;;5085994;27;20585;-58
2021/12/08 03:33:16;;;;;;;3.00;2.30;;;-2.30;99.90;;;;;;5147552;27;20550;-58
2021/12/08 03:35:56;;;;;;;2.50;2.30;;;-2.30;99.90;;;;;;5085591;27;20524;-58
2021/12/08 03:38:36;;;;;;;2.85;2.58;;;-2.20;99.90;;;;;;5147954;27;20685;-58
2021/12/08 03:41:15;;;;;;;2.65;2.45;;;-2.20;99.90;;;;;;5160611;27;21183;-58
2021/12/08 03:43:55;;;;;;;3.38;3.08;;;-2.10;99.90;;;;;;5085985;28;20547;-57
2021/12/08 03:46:40;;;;;;;3.80;3.00;;;-2.10;99.90;;;;;;5147230;27;20538;-58
2021/12/08 03:49:20;;;;;;;3.35;3.05;;;-2.10;99.90;;;;;;5086537;28;20548;-57
2021/12/08 03:52:03;;;;;;;3.65;3.35;;;-2.10;99.90;;;;;;5086699;28;20695;-56
2021/12/08 03:54:43;;;;;;;3.70;3.40;;;-2.00;99.90;;;;;;5086132;28;20688;-57
2021/12/08 03:57:22;;;;;;;3.78;3.47;;;-2.00;99.90;;;;;;5127241;27;20532;-57
2021/12/08 04:00:04;;;;;;;5.22;4.72;;;-2.00;99.90;;;;;;5086364;27;20535;-57
2021/12/08 04:02:44;;;;;;;11.27;10.38;;;-2.00;99.90;;;;;;5086541;28;20699;-58
2021/12/08 04:05:39;;;;;;;12.90;11.80;;;-2.10;99.90;;;;;;5086094;28;21205;-58
2021/12/08 04:08:29;;;;;;;11.73;10.82;;;-2.10;99.90;;;;;;5086184;27;20543;-58
2021/12/08 04:11:11;;;;;;;8.27;7.60;;;-2.30;99.90;;;;;;5147880;27;20653;-57
2021/12/08 04:13:54;;;;;;;6.03;5.53;;;-2.30;99.90;;;;;;5086182;27;20536;-57
2021/12/08 04:16:37;;;;;;;5.15;4.75;;;-2.40;99.90;;;;;;5106540;27;21071;-58
2021/12/08 04:19:17;;;;;;;5.65;5.07;;;-2.40;99.90;;;;;;5086587;28;20691;-58
2021/12/08 04:22:01;;;;;;;4.78;4.22;;;-2.30;99.90;;;;;;5106417;27;20681;-58
2021/12/08 04:24:42;;;;;;;4.72;4.32;;;-2.30;99.90;;;;;;5085566;27;20553;-57
2021/12/08 04:27:25;;;;;;;4.53;4.13;;;-2.20;99.90;;;;;;5147842;27;21066;-58
2021/12/08 04:30:07;;;;;;;4.50;4.10;;;-2.10;99.90;;;;;;5085958;28;21080;-57
2021/12/08 04:32:46;;;;;;;4.47;4.07;;;-2.00;99.90;;;;;;5147976;27;20546;-58
2021/12/08 04:35:28;;;;;;;3.90;3.60;;;-1.90;99.90;;;;;;5086131;27;20531;-58
2021/12/08 04:38:11;;;;;;;4.50;4.10;;;-1.90;99.90;;;;;;5086432;28;20667;-57
2021/12/08 04:41:01;;;;;;;5.28;4.60;;;-1.80;99.90;;;;;;5126942;27;20528;-58
2021/12/08 04:43:51;;;;;;;4.93;3.88;;;-1.80;99.90;;;;;;5106892;27;20669;-57
2021/12/08 04:46:52;;;;;;;4.50;4.20;;;-1.70;99.90;;;;;;5086098;27;20531;-58
2021/12/08 04:50:07;;;;;;;4.22;3.85;;;-1.70;99.90;;;;;;5127371;27;21135;-58
2021/12/08 04:52:51;;;;;;;4.50;3.97;;;-1.70;99.90;;;;;;5127096;27;20559;-58
2021/12/08 05:02:02;;;;;;;4.55;4.15;;;-1.60;99.90;;;;;;5106556;27;20674;-57
2021/12/08 05:04:54;;;;;;;4.85;4.15;;;-1.60;99.90;;;;;;5126796;27;20541;-58
2021/12/08 05:07:48;;;;;;;5.28;4.82;;;-1.60;99.90;;;;;;5084939;27;20539;-57
2021/12/08 05:10:33;;;;;;;5.15;4.68;;;-1.60;99.90;;;;;;5084972;28;21177;-57
2021/12/08 05:13:15;;;;;;;7.20;6.70;;;-1.60;99.90;;;;;;5086531;28;20664;-57
2021/12/08 05:15:57;;;;;;;9.63;8.60;;;-1.60;99.90;;;;;;5086333;28;21018;-57
2021/12/08 05:18:39;;;;;;;9.00;8.18;;;-1.60;99.90;;;;;;5086544;27;20548;-58
2021/12/08 05:21:23;;;;;;;7.75;7.05;;;-1.60;99.90;;;;;;5086648;28;20664;-57
2021/12/08 05:24:10;;;;;;;16.25;5.75;;;-1.50;99.90;;;;;;5086431;28;20561;-57
2021/12/08 05:26:54;;;;;;;7.03;5.95;;;-1.50;99.90;;;;;;5127632;27;20594;-57
2021/12/08 05:29:37;;;;;;;5.65;5.20;;;-1.50;99.90;;;;;;5147798;27;20934;-57
2021/12/08 05:32:19;;;;;;;4.05;3.70;;;-1.50;99.90;;;;;;5086415;28;20551;-56
2021/12/08 05:34:59;;;;;;;7.13;6.43;;;-1.40;99.90;;;;;;5147634;27;20534;-56
2021/12/08 05:37:39;;;;;;;3.95;3.65;;;-1.40;99.90;;;;;;5106533;27;20665;-56
2021/12/08 05:40:22;;;;;;;3.97;3.67;;;-1.40;99.90;;;;;;5085946;28;20668;-57
2021/12/08 05:43:03;;;;;;;4.45;4.05;;;-1.40;99.90;;;;;;5106322;27;20533;-57
2021/12/08 05:45:43;;;;;;;5.53;5.03;;;-1.40;99.90;;;;;;5106368;27;20529;-56
2021/12/08 05:48:22;;;;;;;5.70;5.30;;;-1.30;99.90;;;;;;5086311;27;20818;-56
2021/12/08 05:51:08;;;;;;;5.57;4.88;;;-1.40;99.90;;;;;;5086136;28;20660;-55
2021/12/08 05:53:52;;;;;;;5.85;5.40;;;-1.40;99.90;;;;;;5106494;27;20542;-56
2021/12/08 05:56:32;;;;;;;5.50;5.10;;;-1.40;99.90;;;;;;5085848;28;20687;-56
2021/12/08 05:59:12;;;;;;;4.93;4.25;;;-1.40;99.90;;;;;;5085584;27;20540;-56
2021/12/08 06:01:54;;;;;;;4.57;4.18;;;-1.40;99.90;;;;;;5144058;27;20696;-56
2021/12/08 06:04:34;;;;;;;4.97;4.57;;;-1.40;99.90;;;;;;5106294;27;20649;-57
2021/12/08 06:07:20;;;;;;;5.47;4.38;;;-1.40;99.90;;;;;;5106524;27;20541;-56
2021/12/08 06:10:05;;;;;;;3.78;3.53;;;-1.40;99.90;;;;;;5106347;27;20560;-56
2021/12/08 06:12:46;;;;;;;5.18;3.92;;;-1.40;99.90;;;;;;5085852;27;20586;-56
2021/12/08 06:15:25;;;;;;;3.60;3.40;;;-1.40;99.90;;;;;;5086411;27;20738;-57
2021/12/08 06:18:05;;;;;;;4.63;4.30;;;-1.40;99.90;;;;;;5086237;28;20660;-56
2021/12/08 06:20:44;;;;;;;5.20;4.70;;;-1.40;99.90;;;;;;5086374;28;20539;-56
2021/12/08 06:23:24;;;;;;;5.47;3.95;;;-1.40;99.90;;;;;;5147249;27;20677;-56
2021/12/08 06:26:06;;;;;;;4.50;4.10;;;-1.50;99.90;;;;;;5085949;28;20668;-56
2021/12/08 06:28:45;;;;;;;5.10;4.60;;;-1.50;99.90;;;;;;5126614;27;21326;-56
2021/12/08 06:31:28;;;;;;;4.68;4.15;;;-1.50;99.90;;;;;;5086017;27;21119;-57
2021/12/08 06:34:08;;;;;;;5.63;4.40;;;-1.50;99.90;;;;;;5085951;28;21200;-56
2021/12/08 06:36:53;;;;;;;4.72;4.38;;;-1.60;99.90;;;;;;5106371;27;20665;-56
2021/12/08 06:39:38;;;;;;;5.32;4.88;;;-1.60;99.90;;;;;;5147407;27;21062;-57
2021/12/08 06:42:20;;;;;;;4.78;4.38;;;-1.60;99.90;;;;;;5085500;27;20555;-56
2021/12/08 06:45:01;;;;;;;5.80;5.30;;;-1.50;99.90;;;;;;5085716;28;20655;-56
2021/12/08 06:47:43;;;;;;;6.32;5.70;;;-1.50;99.90;;;;;;5086010;28;20675;-57
2021/12/08 06:50:27;;;;;;;6.53;5.93;;;-1.40;99.90;;;;;;5086259;27;20539;-56
2021/12/08 06:53:07;;;;;;;8.18;4.78;;;-1.40;99.90;;;;;;5165144;27;20548;-57
2021/12/08 06:55:50;;;;;;;4.35;3.95;;;-1.30;99.90;;;;;;5126735;27;20540;-56
2021/12/08 06:58:33;;;;;;;4.40;3.90;;;-1.30;99.90;;;;;;5086299;28;20664;-56
2021/12/08 07:01:20;;;;;;;4.15;3.75;;;-1.20;99.90;;;;;;5106389;27;20850;-56
2021/12/08 07:04:11;;;;;;;4.10;3.80;;;-1.20;99.90;;;;;;5086021;28;20551;-57
2021/12/08 07:06:59;;;;;;;5.90;5.35;;;-1.20;99.90;;;;;;5086013;28;20675;-56
2021/12/08 07:09:42;;;;;;;7.05;6.05;;;-1.20;99.90;;;;;;5147556;27;20534;-56
2021/12/08 07:12:25;;;;;;;7.95;6.90;;;-1.10;99.90;;;;;;5106582;27;20622;-56
2021/12/08 07:15:10;;;;;;;7.45;6.65;;;-1.10;99.90;;;;;;5147702;27;20526;-56
2021/12/08 07:17:54;;;;;;;5.13;4.63;;;-1.00;99.90;;;;;;5086361;27;20532;-56
2021/12/08 07:20:43;;;;;;;5.55;5.07;;;-1.00;99.90;;;;;;5086213;27;20547;-56
2021/12/08 07:23:28;;;;;;;6.50;6.00;;;-1.00;99.90;;;;;;5086144;28;21020;-56
2021/12/08 07:26:10;;;;;;;6.05;5.32;;;-0.90;99.90;;;;;;5147487;27;20657;-56
2021/12/08 07:28:51;;;;;;;5.78;5.35;;;-0.90;99.90;;;;;;5085859;28;20660;-56
2021/12/08 07:31:35;;;;;;;6.35;5.85;;;-0.90;99.90;;;;;;5086008;27;20581;-56
2021/12/08 07:34:18;;;;;;;7.20;6.65;;;-0.90;99.90;;;;;;5106104;27;20541;-56
2021/12/08 07:37:02;;;;;;;4.80;4.40;;;-0.80;99.90;;;;;;5106915;27;21199;-57
2021/12/08 07:39:48;;;;;;;4.47;4.07;;;-0.80;99.90;;;;;;5085650;27;20569;-56
2021/12/08 07:42:32;;;;;;;4.85;4.45;;;-0.80;99.90;;;;;;5126823;27;20556;-56
2021/12/08 07:45:16;;;;;;;6.18;5.10;;;-0.80;99.90;;;;;;5085575;28;20675;-57
2021/12/08 07:47:56;;;;;;;4.65;4.35;;;-0.80;99.90;;;;;;5147481;27;21022;-56
2021/12/08 07:50:40;;;;;;;5.85;4.72;;;-0.70;99.90;;;;;;5126669;27;20536;-56
2021/12/08 07:53:23;;;;;;;5.00;4.60;;;-0.60;99.90;;;;;;5085947;28;20679;-56
2021/12/08 07:56:06;;;;;;;5.00;4.43;;;-0.50;99.90;;;;;;5085847;28;20671;-56
2021/12/08 07:58:53;;;;;;;5.43;4.88;;;-0.50;99.90;;;;;;5086592;28;20664;-56
2021/12/08 08:01:36;;;;;;;5.20;4.80;;;-0.50;99.90;;;;;;5086317;27;20987;-56
2021/12/08 08:04:20;;;;;;;5.07;4.68;;;-0.50;99.90;;;;;;5086175;27;21207;-57
2021/12/08 08:07:01;;;;;;;5.97;5.38;;;-0.50;99.90;;;;;;5106156;27;20549;-56
2021/12/08 08:09:42;;;;;;;7.20;6.60;;;-0.50;99.90;;;;;;5085624;27;20532;-56
2021/12/08 08:12:24;;;;;;;6.75;5.85;;;-0.50;99.90;;;;;;5085985;28;20547;-56
2021/12/08 08:15:09;;;;;;;5.57;5.05;;;-0.50;99.90;;;;;;5147266;27;20538;-56
2021/12/08 08:17:52;;;;;;;5.93;5.43;;;-0.40;99.90;;;;;;5086148;27;20543;-56
2021/12/08 08:20:37;;;;;;;5.40;5.00;;;-0.30;99.90;;;;;;5086525;27;21128;-57
2021/12/08 08:23:19;;;;;;;5.70;5.00;;;-0.30;99.90;;;;;;5086183;27;20565;-56
2021/12/08 08:26:00;;;;;;;6.25;5.75;;;-0.20;99.90;;;;;;5086162;28;20659;-56
2021/12/08 08:28:41;;;;;;;5.65;5.15;;;-0.10;99.90;;;;;;5086114;28;20668;-57
2021/12/08 08:31:25;;;;;;;5.25;4.85;;;-0.10;99.90;;;;;;5147787;27;20964;-56
2021/12/08 08:34:04;;;;;;;6.53;5.88;;;0.00;99.90;;;;;;5084682;27;20926;-56
2021/12/08 08:36:47;;;;;;;5.50;5.05;;;0.00;99.90;;;;;;5147454;27;20677;-56
2021/12/08 08:39:30;;;;;;;7.47;6.80;;;0.10;99.90;;;;;;5106384;27;21147;-56
2021/12/08 08:42:16;;;;;;;10.80;10.00;;;0.10;99.90;;;;;;5084884;28;20679;-56
2021/12/08 08:44:59;;;;;;;6.35;5.80;;;0.10;99.90;;;;;;5085743;28;21208;-56
2021/12/08 08:47:41;;;;;;;6.20;5.63;;;0.10;99.90;;;;;;5086098;28;21201;-56
2021/12/08 08:50:24;;;;;;;10.85;10.02;;;0.10;99.90;;;;;;5126004;27;20548;-56
2021/12/08 08:53:05;;;;;;;11.20;10.15;;;0.10;99.90;;;;;;5138939;27;20668;-56
2021/12/08 08:55:53;;;;;;;12.60;11.52;;;0.10;99.90;;;;;;5124777;27;20905;-57
2021/12/08 08:58:35;;;;;;;8.05;7.45;;;0.20;99.90;;;;;;5147328;27;20547;-56
2021/12/08 09:01:17;;;;;;;7.32;6.65;;;0.20;99.90;;;;;;5082822;28;20671;-56
2021/12/08 09:04:01;;;;;;;6.13;5.53;;;0.20;99.90;;;;;;5126945;27;20540;-56
2021/12/08 09:06:44;;;;;;;6.93;5.82;;;0.20;99.90;;;;;;5086307;27;20539;-57
2021/12/08 09:09:29;;;;;;;6.50;5.88;;;0.20;99.90;;;;;;5086149;27;20543;-56
2021/12/08 09:12:12;;;;;;;6.35;5.85;;;0.20;99.90;;;;;;5126911;27;21099;-56
2021/12/08 09:14:55;;;;;;;5.25;4.80;;;0.20;99.90;;;;;;5085693;27;20543;-56
2021/12/08 09:17:39;;;;;;;6.65;6.10;;;0.20;99.90;;;;;;5086192;28;20683;-56
2021/12/08 09:20:27;;;;;;;6.03;5.53;;;0.30;99.90;;;;;;5086155;28;20679;-56
2021/12/08 09:23:24;;;;;;;6.25;5.70;;;0.30;99.90;;;;;;5085411;27;20563;-56
2021/12/08 09:26:09;;;;;;;5.63;5.18;;;0.30;99.90;;;;;;5147244;27;20677;-56
2021/12/08 09:28:55;;;;;;;5.28;4.88;;;0.40;99.90;;;;;;5106306;27;20653;-56
2021/12/08 09:31:37;;;;;;;5.57;5.07;;;0.50;99.90;;;;;;5147384;27;20681;-56
2021/12/08 09:34:21;;;;;;;6.38;5.95;;;0.60;99.90;;;;;;5085976;28;20580;-56
2021/12/08 09:37:07;;;;;;;7.25;5.03;;;0.60;99.90;;;;;;5085997;28;20663;-56
2021/12/08 09:39:49;;;;;;;5.07;4.63;;;0.70;99.90;;;;;;5085151;27;20910;-56
2021/12/08 09:42:32;;;;;;;9.02;6.45;;;0.70;99.90;;;;;;5085931;27;20551;-56
2021/12/08 09:45:17;;;;;;;8.05;5.65;;;0.70;99.90;;;;;;5105938;27;20530;-56
2021/12/08 09:47:57;;;;;;;6.78;6.15;;;0.70;99.90;;;;;;5085971;28;20539;-56
2021/12/08 09:50:37;;;;;;;5.85;5.45;;;0.80;99.90;;;;;;5085896;28;20667;-56
2021/12/08 09:53:16;;;;;;;6.13;5.30;;;0.90;99.90;;;;;;5147507;27;20554;-56
2021/12/08 09:55:56;;;;;;;5.70;5.18;;;0.80;99.90;;;;;;5085815;28;20675;-56
2021/12/08 09:58:38;;;;;;;5.82;5.38;;;0.90;99.90;;;;;;5147355;27;21194;-56
2021/12/08 10:01:20;;;;;;;5.43;5.03;;;0.90;99.90;;;;;;5126086;27;20675;-56
2021/12/08 10:04:01;;;;;;;5.35;4.95;;;0.90;99.90;;;;;;5085908;27;20547;-56
2021/12/08 10:06:44;;;;;;;5.72;5.32;;;0.80;99.90;;;;;;5085502;27;20563;-56
2021/12/08 10:09:23;;;;;;;6.32;5.82;;;0.80;99.90;;;;;;5147273;27;20672;-56
2021/12/08 10:12:04;;;;;;;5.70;5.20;;;0.80;99.90;;;;;;5086273;28;21030;-56
2021/12/08 10:14:46;;;;;;;5.60;5.20;;;0.90;99.90;;;;;;5105882;27;20654;-56
2021/12/08 10:17:26;;;;;;;6.88;6.32;;;1.00;99.90;;;;;;5086222;28;21192;-56
2021/12/08 10:20:13;;;;;;;7.18;6.55;;;1.30;99.90;;;;;;5147321;27;20546;-56
2021/12/08 10:23:17;;;;;;;6.15;5.35;;;1.40;99.90;;;;;;5126722;27;20556;-56
2021/12/08 10:26:03;;;;;;;7.72;7.13;;;1.40;99.90;;;;;;5085977;28;20696;-56
2021/12/08 10:28:44;;;;;;;6.53;5.88;;;1.50;99.90;;;;;;5085973;28;20840;-56
2021/12/08 10:31:28;;;;;;;6.63;5.50;;;1.60;99.90;;;;;;5085684;28;21189;-56
2021/12/08 10:34:20;;;;;;;5.53;5.03;;;1.90;99.90;;;;;;5086037;27;20559;-55
2021/12/08 10:37:03;;;;;;;5.43;5.03;;;1.90;99.90;;;;;;5086006;27;20546;-56
2021/12/08 10:39:45;;;;;;;5.68;5.20;;;1.90;99.90;;;;;;5147698;27;20653;-56
2021/12/08 10:42:27;;;;;;;5.57;5.18;;;1.80;99.90;;;;;;5147832;27;21225;-56
2021/12/08 10:45:11;;;;;;;6.28;5.68;;;1.90;99.90;;;;;;5106178;27;20681;-56
2021/12/08 10:47:55;;;;;;;5.68;5.13;;;2.10;99.90;;;;;;5106664;27;21052;-55
2021/12/08 10:56:37;;;;;;;8.15;5.95;;;2.50;99.90;;;;;;5085679;28;20731;-56
2021/12/08 10:59:17;;;;;;;6.00;5.45;;;2.40;99.90;;;;;;5106636;27;20872;-55
2021/12/08 11:01:59;;;;;;;5.65;4.93;;;2.20;99.90;;;;;;5147255;27;20938;-56
2021/12/08 11:04:38;;;;;;;5.78;5.20;;;2.20;99.90;;;;;;5085397;27;20539;-55
2021/12/08 11:07:18;;;;;;;7.60;6.43;;;2.30;99.90;;;;;;5126879;27;20540;-56
2021/12/08 11:09:58;;;;;;;5.90;5.40;;;2.50;99.90;;;;;;5106349;27;20670;-56
2021/12/08 11:12:41;;;;;;;7.57;5.68;;;2.60;99.90;;;;;;5147709;27;21023;-56
2021/12/08 11:15:23;;;;;;;6.80;6.25;;;2.70;99.90;;;;;;5086016;27;20580;-56
2021/12/08 11:18:17;;;;;;;6.63;6.07;;;2.90;99.90;;;;;;5086630;28;20668;-56
2021/12/08 11:20:59;;;;;;;6.35;5.85;;;3.00;99.90;;;;;;5106484;27;21214;-56
2021/12/08 11:23:41;;;;;;;7.57;5.70;;;3.10;99.90;;;;;;5086409;28;21022;-56
2021/12/08 11:26:25;;;;;;;7.13;6.43;;;3.10;99.90;;;;;;5106279;27;20658;-55
2021/12/08 11:29:06;;;;;;;7.97;7.28;;;2.90;99.90;;;;;;5085359;28;20544;-55
2021/12/08 11:31:47;;;;;;;6.60;6.10;;;2.80;99.90;;;;;;5085837;28;21212;-56
2021/12/08 11:34:28;;;;;;;7.22;6.53;;;2.60;99.90;;;;;;5147569;27;20657;-56
2021/12/08 11:37:12;;;;;;;6.68;6.18;;;2.60;99.90;;;;;;5086499;28;20663;-56
2021/12/08 11:39:55;;;;;;;6.13;5.72;;;2.50;99.90;;;;;;5149022;27;20646;-57
2021/12/08 11:42:36;;;;;;;6.53;6.03;;;2.60;99.90;;;;;;5074128;28;20741;-56
2021/12/08 11:45:18;;;;;;;6.10;5.70;;;2.60;99.90;;;;;;5099268;27;20585;-57
2021/12/08 11:47:57;;;;;;;7.43;6.78;;;2.70;99.90;;;;;;5055791;27;21133;-57
2021/12/08 11:50:38;;;;;;;8.48;7.53;;;2.80;99.90;;;;;;5143762;27;20673;-56
2021/12/08 11:53:22;;;;;;;6.60;6.00;;;3.00;99.90;;;;;;5066034;27;20545;-57
2021/12/08 11:56:03;;;;;;;7.60;7.00;;;3.10;99.90;;;;;;5138271;27;20976;-56
2021/12/08 11:58:55;;;;;;;6.43;5.93;;;3.20;99.90;;;;;;5085493;27;20569;-57
2021/12/08 12:01:36;;;;;;;7.40;6.80;;;3.30;99.90;;;;;;5082021;27;20586;-57
2021/12/08 12:04:15;;;;;;;7.28;6.70;;;3.40;99.90;;;;;;5085138;28;20695;-56
2021/12/08 12:06:55;;;;;;;6.93;6.32;;;3.20;99.90;;;;;;5137765;27;21206;-56
2021/12/08 12:09:35;;;;;;;8.30;7.65;;;3.10;99.90;;;;;;5085538;27;20930;-57
2021/12/08 12:12:14;;;;;;;8.20;7.53;;;3.00;99.90;;;;;;5080150;28;20678;-56
2021/12/08 12:14:54;;;;;;;9.23;7.72;;;2.80;99.90;;;;;;5085433;28;20672;-57
2021/12/08 12:17:34;;;;;;;8.48;7.85;;;2.60;99.90;;;;;;5137951;27;20685;-57
2021/12/08 12:20:21;;;;;;;8.05;7.47;;;2.60;99.90;;;;;;5126523;27;20540;-57
2021/12/08 12:23:42;;;;;;;7.88;7.25;;;2.50;99.90;;;;;;5089531;27;20571;-56
2021/12/08 12:26:31;;;;;;;7.40;6.75;;;2.50;99.90;;;;;;5085522;27;20535;-57
2021/12/08 12:29:21;;;;;;;7.40;6.80;;;2.40;99.90;;;;;;5086069;28;22096;-56
2021/12/08 12:32:09;;;;;;;7.38;6.78;;;2.40;99.90;;;;;;5101366;27;20681;-57
2021/12/08 12:34:53;;;;;;;7.53;7.03;;;2.30;99.90;;;;;;5138608;27;20659;-57
2021/12/08 12:37:35;;;;;;;6.70;6.20;;;2.30;99.90;;;;;;5085313;28;21026;-57
2021/12/08 12:40:17;;;;;;;7.93;7.32;;;2.30;99.90;;;;;;5085569;28;20692;-56
2021/12/08 12:42:59;;;;;;;7.80;7.20;;;2.20;99.90;;;;;;5138842;27;20667;-55
2021/12/08 12:45:42;;;;;;;7.72;7.10;;;2.10;99.90;;;;;;5085903;27;20788;-57
2021/12/08 12:48:27;;;;;;;7.65;6.90;;;1.90;99.90;;;;;;5105924;27;21055;-57
2021/12/08 12:51:08;;;;;;;7.75;7.05;;;1.80;99.90;;;;;;5085695;27;21141;-57
2021/12/08 12:53:53;;;;;;;6.72;6.22;;;1.70;99.90;;;;;;5085309;28;20688;-57
2021/12/08 12:56:52;;;;;;;7.55;6.85;;;1.70;99.90;;;;;;5085401;27;21072;-56
2021/12/08 12:59:43;;;;;;;6.95;6.35;;;1.80;99.90;;;;;;5085411;28;20695;-57
2021/12/08 13:02:29;;;;;;;7.03;6.45;;;1.90;99.90;;;;;;5137853;27;20674;-58
2021/12/08 13:05:11;;;;;;;7.10;6.63;;;1.90;99.90;;;;;;5085615;27;20540;-57
2021/12/08 13:07:59;;;;;;;7.13;6.65;;;1.80;99.90;;;;;;5085886;27;21047;-57
2021/12/08 13:10:40;;;;;;;7.40;6.90;;;1.60;99.90;;;;;;5106381;27;20845;-57
2021/12/08 13:13:19;;;;;;;6.68;6.20;;;1.60;99.90;;;;;;5077160;28;20549;-57
2021/12/08 13:15:59;;;;;;;7.35;6.85;;;1.60;99.90;;;;;;5105767;27;20940;-57
2021/12/08 13:18:54;;;;;;;7.72;7.22;;;1.60;99.90;;;;;;5085459;27;20543;-57
2021/12/08 13:21:42;;;;;;;7.65;7.05;;;1.50;99.90;;;;;;5082882;27;20564;-57
2021/12/08 13:24:38;;;;;;;7.32;6.82;;;1.50;99.90;;;;;;5085646;28;20667;-58
2021/12/08 13:27:27;;;;;;;7.97;7.38;;;1.50;99.90;;;;;;5085529;27;20535;-57
2021/12/08 13:30:14;;;;;;;8.15;7.57;;;1.50;99.90;;;;;;5085951;27;20544;-57
2021/12/08 13:33:07;;;;;;;8.95;8.25;;;1.50;99.90;;;;;;5077478;28;21024;-57
2021/12/08 13:35:47;;;;;;;7.95;7.45;;;1.40;99.90;;;;;;5138239;27;20559;-57
2021/12/08 13:38:27;;;;;;;7.55;7.05;;;1.40;99.90;;;;;;5085103;27;20552;-57
2021/12/08 13:41:15;;;;;;;8.10;7.50;;;1.40;99.90;;;;;;5085782;28;20680;-57
2021/12/08 13:43:55;;;;;;;8.18;7.57;;;1.40;99.90;;;;;;5126065;27;20671;-57
2021/12/08 13:46:46;;;;;;;8.25;7.65;;;1.40;99.90;;;;;;5137730;27;20669;-57
2021/12/08 13:49:28;;;;;;;8.27;7.53;;;1.40;99.90;;;;;;5106030;27;20549;-57
2021/12/08 13:52:25;;;;;;;8.38;7.78;;;1.40;99.90;;;;;;5086030;27;21155;-57
2021/12/08 13:55:20;;;;;;;7.97;7.38;;;1.40;99.90;;;;;;5147131;27;20669;-58
2021/12/08 13:58:12;;;;;;;8.85;8.15;;;1.50;99.90;;;;;;5147492;27;20534;-57
2021/12/08 14:00:54;;;;;;;7.93;7.32;;;1.60;99.90;;;;;;5086028;27;20535;-57
2021/12/08 14:03:39;;;;;;;7.78;7.07;;;1.50;99.90;;;;;;5147474;27;20657;-57
2021/12/08 14:06:21;;;;;;;7.68;7.07;;;1.30;99.90;;;;;;5085836;28;20656;-57
2021/12/08 14:09:00;;;;;;;9.30;8.50;;;1.10;99.90;;;;;;5085196;27;21088;-58
2021/12/08 14:11:40;;;;;;;9.32;8.43;;;1.00;99.90;;;;;;5126468;27;20564;-57
2021/12/08 14:14:20;;;;;;;8.93;8.23;;;0.90;99.90;;;;;;5086329;28;20679;-57
2021/12/08 14:16:59;;;;;;;8.90;8.30;;;0.90;99.90;;;;;;5106520;27;20953;-57
2021/12/08 14:19:40;;;;;;;9.23;8.32;;;0.90;99.90;;;;;;5086855;28;21189;-58
2021/12/08 14:22:21;;;;;;;8.73;8.02;;;0.80;99.90;;;;;;5085485;27;20559;-58
2021/12/08 14:25:00;;;;;;;9.07;8.38;;;0.80;99.90;;;;;;5147630;27;20942;-57
2021/12/08 14:27:40;;;;;;;10.85;9.93;;;0.90;99.90;;;;;;5086021;28;21019;-57
2021/12/08 14:30:23;;;;;;;9.95;9.25;;;0.90;99.90;;;;;;5085956;28;20671;-57
2021/12/08 14:33:05;;;;;;;8.65;7.97;;;1.00;99.90;;;;;;5085903;28;21189;-57
2021/12/08 14:35:55;;;;;;;8.50;7.90;;;0.90;99.90;;;;;;5086293;27;20545;-57
2021/12/08 14:38:38;;;;;;;8.27;7.57;;;1.00;99.90;;;;;;5085848;28;20660;-57
2021/12/08 14:41:24;;;;;;;8.60;7.80;;;1.00;99.90;;;;;;5148007;27;20527;-58
2021/12/08 14:44:11;;;;;;;8.50;7.90;;;1.00;99.90;;;;;;5086042;28;20548;-57